Laclede, Idaho
Current Conditions -  °F | °C
As of 2:15 PM on Thursday 23 Oct 2014 (Local Time) from KSZT Reporting Station
Drizzle Drizzle  
Wind Chill: 52°   Ceiling: 2400
Heat Index: 52°   Visibility: 10mi
Dew Point: 52°   Wind: 7mph
Humidity: 100%   Direction: 200°SSW
Pressure: 29.76"   Gusts: NA
Location:  48.17°N, 116.75°W
Report Text: KSZT 232115Z AUTO 20006KT 10SM -DZ BKN024 BKN029 OVC036 11/11 A2976 RMK AO2
Loading
Personal Weather Stations






























Interactive Weather Map
Tropical Storm Tracking
New forecast layout! Learn more

10-Day Weather Forecast

Advertisements
Track Severe Weather on mobile